world map with AMQ marked

AMQ - Airport

This information may not be accurate or current and is not valid for navigation or flight planning. No warranty of fitness for any purpose is made or implied.

flag of Indonesia

Donate via PayPal

Additional information is available on the NEW Great Circle Mapper

Location
City:  Ambon, Maluku, Indonesia
Name:Pattimura Airport
ICAO / IATA:WAPP / AMQ

Details
Type:Airport (Aerodrome, Airfield)
Latitude:3°42'37"S (-3.710263)
Longitude:128°05'21"E (128.089136)
Datum:WGS 1984
Elevation:33 ft (10 m)
Runways:1
Longest:8202 × 148 ft (2500 × 45 m)

Time
Timezone:UTC+9 (DST+11)
Local Time:

Weather
METAR:WAPP  041300Z 32006KT 270V010 9999 SCT020 29/21 Q1010 NOSIG
TAF:WAPP  (expired)

Related Locations
Nearby:
Farthest:OYP: 12443 mi / 20026 km
St-Georges de l'Oyapok, GF

Find:

   beyond  
but within

Other Information
Maps:
Links:
Sources:

  


 


Great Circle Mapper   Great Circle Mapper
Great Circle Mapper FAQ   Great Circle Mapper FAQ
  Karl's Home Page
KLSē   KLSē Home
   GC on Facebook
Airlines of the World   Airlines of the World
Donate via PayPal


Copyright © 2004-2020, Karl L. Swartz. All rights reserved.
All trademarks mentioned herein belong to their respective owners.

Please see credits for attribution and copyright information.

Karl Swartz <karl@kls2.com>
  Powered by FreeBSD
Valid HTML 4.01!
Labeled with ICRA
hCard Microformat
Geo Microformat